createdAt,value
2023-04-30T00:03:00.718Z,84.90
2023-04-30T00:06:42.988Z,84.70
2023-04-30T00:10:24.796Z,84.80
2023-04-30T00:14:07.187Z,84.90
2023-04-30T00:17:49.031Z,85.00
2023-04-30T00:21:33.664Z,85.00
2023-04-30T00:25:16.891Z,85.20
2023-04-30T00:28:58.591Z,85.20
2023-04-30T00:32:40.522Z,85.20
2023-04-30T00:36:22.945Z,85.30
2023-04-30T00:40:08.095Z,85.30
2023-04-30T00:43:53.048Z,85.40
2023-04-30T00:47:35.123Z,85.50
2023-04-30T00:51:16.975Z,85.70
2023-04-30T00:55:02.046Z,85.90
2023-04-30T00:58:46.448Z,86.30
2023-04-30T01:02:29.985Z,85.90
2023-04-30T01:06:15.073Z,85.90
2023-04-30T01:09:57.119Z,85.90
2023-04-30T01:13:48.854Z,85.80
2023-04-30T01:17:47.264Z,86.70
2023-04-30T01:21:33.001Z,87.10
2023-04-30T01:25:40.228Z,86.40
2023-04-30T01:29:24.980Z,86.90
2023-04-30T01:33:06.720Z,86.20
2023-04-30T01:36:56.856Z,86.10
2023-04-30T01:40:44.344Z,86.60
2023-04-30T01:44:54.249Z,86.60
2023-04-30T01:48:56.044Z,87.50
2023-04-30T01:52:53.005Z,86.70
2023-04-30T01:56:45.442Z,87.90
2023-04-30T02:00:31.929Z,87.80
2023-04-30T02:04:13.658Z,88.00
2023-04-30T02:07:59.362Z,87.30
2023-04-30T02:11:42.402Z,87.50
2023-04-30T02:15:25.879Z,87.70
2023-04-30T02:19:07.618Z,87.80
2023-04-30T02:22:49.747Z,87.80
2023-04-30T02:26:32.786Z,87.90
2023-04-30T02:30:17.479Z,88.00
2023-04-30T02:33:59.307Z,88.30
2023-04-30T02:37:41.054Z,88.00
2023-04-30T02:41:23.878Z,88.20
2023-04-30T02:45:06.196Z,88.60
2023-04-30T02:48:47.883Z,88.80
2023-04-30T02:52:29.589Z,88.90
2023-04-30T02:56:11.302Z,89.70
2023-04-30T02:59:53.223Z,89.20
2023-04-30T03:03:35.443Z,89.10
2023-04-30T03:07:17.150Z,89.00
2023-04-30T03:10:59.011Z,88.90
2023-04-30T03:14:41.562Z,88.90
2023-04-30T03:18:23.263Z,89.00
2023-04-30T03:22:04.971Z,89.00
2023-04-30T03:25:46.695Z,89.10
2023-04-30T03:29:28.413Z,89.10
2023-04-30T03:33:10.818Z,89.30
2023-04-30T03:36:52.640Z,89.40
2023-04-30T03:40:34.391Z,89.60
2023-04-30T03:44:16.282Z,89.70
2023-04-30T03:47:58.064Z,89.80
2023-04-30T03:51:41.865Z,89.90
2023-04-30T03:55:23.772Z,90.00
2023-04-30T03:59:06.142Z,89.80
2023-04-30T04:02:48.075Z,89.90
2023-04-30T04:06:29.855Z,90.00
2023-04-30T04:10:11.708Z,90.00
2023-04-30T04:13:53.469Z,90.00
2023-04-30T04:17:35.369Z,90.10
2023-04-30T04:21:17.230Z,90.20
2023-04-30T04:24:59.091Z,90.20
2023-04-30T04:28:41.044Z,90.30
2023-04-30T04:32:23.427Z,90.40
2023-04-30T04:36:05.383Z,90.40
2023-04-30T04:39:47.080Z,90.40
2023-04-30T04:43:28.888Z,90.50
2023-04-30T04:47:12.806Z,90.70
2023-04-30T04:50:54.812Z,90.90
2023-04-30T04:54:36.507Z,90.90
2023-04-30T04:58:18.260Z,91.10
2023-04-30T05:01:59.958Z,91.20
2023-04-30T05:05:41.852Z,91.30
2023-04-30T05:09:23.556Z,91.30
2023-04-30T05:13:05.287Z,91.30
2023-04-30T05:16:47.659Z,91.30
2023-04-30T05:20:29.392Z,91.40
2023-04-30T05:24:11.146Z,91.40
2023-04-30T05:27:52.838Z,91.40
2023-04-30T05:31:34.868Z,91.40
2023-04-30T05:35:20.174Z,91.50
2023-04-30T05:39:01.891Z,91.60
2023-04-30T05:42:43.780Z,91.60
2023-04-30T05:46:25.631Z,92.00
2023-04-30T05:50:08.600Z,91.70
2023-04-30T05:53:50.490Z,91.50
2023-04-30T05:57:32.266Z,91.30
2023-04-30T06:01:14.022Z,91.30
2023-04-30T06:04:56.010Z,91.30
2023-04-30T06:08:38.022Z,91.40
2023-04-30T06:12:19.989Z,91.40
2023-04-30T06:16:01.737Z,91.50
2023-04-30T06:19:43.523Z,91.80
2023-04-30T06:23:25.410Z,91.50
2023-04-30T06:27:07.131Z,91.60
2023-04-30T06:30:49.277Z,91.60
2023-04-30T06:34:31.425Z,91.60
2023-04-30T06:38:13.687Z,91.60
2023-04-30T06:41:55.793Z,91.60
2023-04-30T06:45:37.718Z,91.60
2023-04-30T06:49:19.510Z,91.60
2023-04-30T06:53:01.451Z,91.70
2023-04-30T06:56:44.518Z,91.60
2023-04-30T07:00:26.516Z,91.60
2023-04-30T07:04:08.423Z,91.60
2023-04-30T07:07:50.200Z,91.60
2023-04-30T07:11:32.161Z,91.60
2023-04-30T07:15:13.890Z,91.70
2023-04-30T07:18:55.727Z,91.80
2023-04-30T07:22:39.004Z,91.90
2023-04-30T07:26:20.937Z,92.00
2023-04-30T07:30:02.738Z,92.10
2023-04-30T07:33:44.944Z,92.10
2023-04-30T07:37:27.058Z,92.20
2023-04-30T07:41:09.535Z,92.20
2023-04-30T07:44:52.802Z,92.40
2023-04-30T07:48:34.570Z,92.50
2023-04-30T07:52:16.299Z,92.60
2023-04-30T07:55:58.025Z,92.60
2023-04-30T07:59:39.760Z,92.50
2023-04-30T08:03:21.602Z,92.40
2023-04-30T08:07:04.570Z,92.30
2023-04-30T08:10:46.341Z,92.20
2023-04-30T08:14:28.036Z,92.10
2023-04-30T08:18:09.834Z,92.20
2023-04-30T08:21:51.621Z,92.30
2023-04-30T08:25:34.191Z,92.20
2023-04-30T08:29:15.930Z,92.20
2023-04-30T08:32:57.900Z,92.20
2023-04-30T08:36:39.713Z,92.20
2023-04-30T08:40:23.550Z,92.30
2023-04-30T08:44:08.434Z,92.30
2023-04-30T08:47:50.494Z,92.30
2023-04-30T08:51:33.844Z,92.30
2023-04-30T08:55:15.594Z,92.40
2023-04-30T08:58:57.312Z,92.30
2023-04-30T09:02:42.802Z,92.30
2023-04-30T09:06:24.682Z,92.10
2023-04-30T09:10:21.634Z,92.20
2023-04-30T09:14:04.035Z,92.10
2023-04-30T09:17:48.125Z,92.10
2023-04-30T09:21:35.594Z,92.00
2023-04-30T09:25:17.357Z,91.80
2023-04-30T09:28:59.846Z,91.80
2023-04-30T09:32:57.012Z,91.70
2023-04-30T09:36:55.155Z,91.60
2023-04-30T09:40:41.364Z,91.80
2023-04-30T09:44:30.513Z,91.80
2023-04-30T09:48:16.901Z,91.90
2023-04-30T09:52:01.399Z,91.90
2023-04-30T09:55:45.070Z,91.90
2023-04-30T09:59:35.119Z,91.80
2023-04-30T10:03:19.434Z,91.80
2023-04-30T10:07:04.227Z,91.80
2023-04-30T10:10:50.524Z,91.70
2023-04-30T10:14:34.314Z,91.70
2023-04-30T10:18:28.762Z,91.80
2023-04-30T10:22:11.214Z,91.60
2023-04-30T10:25:53.924Z,91.70
2023-04-30T10:29:35.743Z,91.60
2023-04-30T10:33:40.721Z,91.60
2023-04-30T10:37:40.115Z,91.40
2023-04-30T10:41:21.906Z,91.20
2023-04-30T10:45:04.190Z,91.40
2023-04-30T10:48:46.407Z,91.40
2023-04-30T10:52:29.952Z,91.30
2023-04-30T10:56:11.956Z,91.20
2023-04-30T11:00:14.561Z,91.20
2023-04-30T11:04:10.384Z,91.20
2023-04-30T11:07:57.408Z,90.90
2023-04-30T11:11:39.194Z,90.80
2023-04-30T11:15:25.353Z,90.90
2023-04-30T11:19:11.815Z,90.70
2023-04-30T11:23:32.212Z,90.60
2023-04-30T11:27:24.733Z,89.80
2023-04-30T11:31:06.584Z,90.30
2023-04-30T11:34:49.453Z,90.30
2023-04-30T11:38:35.398Z,90.20
2023-04-30T11:42:20.414Z,90.30
2023-04-30T11:46:10.653Z,90.10
2023-04-30T11:49:53.576Z,90.10
2023-04-30T11:53:35.469Z,90.10
2023-04-30T11:57:17.236Z,89.20
2023-04-30T12:01:00.668Z,90.00
2023-04-30T12:04:44.152Z,89.40
2023-04-30T12:08:26.716Z,88.70
2023-04-30T12:12:08.423Z,88.80
2023-04-30T12:16:08.267Z,88.80
2023-04-30T12:19:51.194Z,87.40
2023-04-30T12:23:32.815Z,88.60
2023-04-30T12:27:15.134Z,87.90
2023-04-30T12:30:56.900Z,88.30
2023-04-30T12:34:38.989Z,88.60
2023-04-30T12:38:22.389Z,89.00
2023-04-30T12:42:04.397Z,89.20
2023-04-30T12:45:51.290Z,89.30
2023-04-30T12:49:36.348Z,89.30
2023-04-30T12:53:18.092Z,90.10
2023-04-30T12:57:04.800Z,89.60
2023-04-30T13:00:51.635Z,89.30
2023-04-30T13:04:33.508Z,89.10
2023-04-30T13:08:15.827Z,89.50
2023-04-30T13:11:57.540Z,89.10
2023-04-30T13:15:40.461Z,89.00
2023-04-30T13:19:22.154Z,89.30
2023-04-30T13:23:04.327Z,89.10
2023-04-30T13:26:46.041Z,89.90
2023-04-30T13:30:29.780Z,90.10
2023-04-30T13:34:11.635Z,89.70
2023-04-30T13:37:54.937Z,89.50
2023-04-30T13:41:36.755Z,89.10
2023-04-30T13:45:18.579Z,89.60
2023-04-30T13:49:00.284Z,89.40
2023-04-30T13:52:41.988Z,88.90
2023-04-30T13:56:24.370Z,88.30
2023-04-30T14:00:07.971Z,87.30
2023-04-30T14:03:49.957Z,87.10
2023-04-30T14:07:32.424Z,87.00
2023-04-30T14:11:14.221Z,86.80
2023-04-30T14:14:56.655Z,86.70
2023-04-30T14:18:38.400Z,86.40
2023-04-30T14:22:20.113Z,86.20
2023-04-30T14:26:01.987Z,86.40
2023-04-30T14:29:43.700Z,86.30
2023-04-30T14:33:25.526Z,85.60
2023-04-30T14:37:07.237Z,85.40
2023-04-30T14:40:49.020Z,84.60
2023-04-30T14:44:32.217Z,84.40
2023-04-30T14:48:14.011Z,84.30
2023-04-30T14:51:55.849Z,84.00
2023-04-30T14:55:39.005Z,83.90
2023-04-30T14:59:20.943Z,83.90
2023-04-30T15:03:02.741Z,84.20
2023-04-30T15:06:44.884Z,84.00
2023-04-30T15:10:26.829Z,83.70
2023-04-30T15:14:08.640Z,83.70
2023-04-30T15:17:50.478Z,83.60
2023-04-30T15:21:32.239Z,83.50
2023-04-30T15:25:14.020Z,83.60
2023-04-30T15:28:56.835Z,83.50
2023-04-30T15:32:38.988Z,83.70
2023-04-30T15:36:23.388Z,83.70
2023-04-30T15:40:05.682Z,83.90
2023-04-30T15:43:47.374Z,83.80
2023-04-30T15:47:29.211Z,83.80
2023-04-30T15:51:11.021Z,83.80
2023-04-30T15:54:52.753Z,84.40
2023-04-30T15:58:34.654Z,83.90
2023-04-30T16:02:16.530Z,84.00
2023-04-30T16:06:00.886Z,83.60
2023-04-30T16:09:45.753Z,83.20
2023-04-30T16:13:27.899Z,83.50
2023-04-30T16:17:09.711Z,83.20
2023-04-30T16:20:51.942Z,83.00
2023-04-30T16:24:33.700Z,82.70
2023-04-30T16:28:15.439Z,82.80
2023-04-30T16:31:57.944Z,82.80
2023-04-30T16:35:39.716Z,82.60
2023-04-30T16:39:21.489Z,82.70
2023-04-30T16:43:03.322Z,82.40
2023-04-30T16:46:45.013Z,82.20
2023-04-30T16:50:27.001Z,82.20
2023-04-30T16:54:08.771Z,82.20
2023-04-30T16:57:50.760Z,82.30
2023-04-30T17:01:32.700Z,82.30
2023-04-30T17:05:17.728Z,82.20
2023-04-30T17:08:59.478Z,82.20
2023-04-30T17:12:41.247Z,82.20
2023-04-30T17:16:23.456Z,82.70
2023-04-30T17:20:05.966Z,82.10
2023-04-30T17:23:47.765Z,82.10
2023-04-30T17:27:29.546Z,82.20
2023-04-30T17:31:11.667Z,82.20
2023-04-30T17:34:53.720Z,82.30
2023-04-30T17:38:35.976Z,82.30
2023-04-30T17:42:17.881Z,82.40
2023-04-30T17:45:59.698Z,82.50
2023-04-30T17:49:41.539Z,82.60
2023-04-30T17:53:23.279Z,82.60
2023-04-30T17:57:05.038Z,83.40
2023-04-30T18:00:46.870Z,82.80
2023-04-30T18:04:28.621Z,82.80
2023-04-30T18:08:10.325Z,83.00
2023-04-30T18:11:52.667Z,83.10
2023-04-30T18:15:34.399Z,83.30
2023-04-30T18:19:16.162Z,84.20
2023-04-30T18:22:58.299Z,83.60
2023-04-30T18:26:40.077Z,83.70
2023-04-30T18:30:21.827Z,83.80
2023-04-30T18:34:03.960Z,84.10
2023-04-30T18:37:45.668Z,84.30
2023-04-30T18:41:27.555Z,84.30
2023-04-30T18:45:11.377Z,84.70
2023-04-30T18:48:53.242Z,84.80
2023-04-30T18:52:35.052Z,85.00
2023-04-30T18:56:17.091Z,85.20
2023-04-30T18:59:58.925Z,85.40
2023-04-30T19:03:42.013Z,85.40
2023-04-30T19:07:23.874Z,85.80
2023-04-30T19:11:06.178Z,85.90
2023-04-30T19:14:47.943Z,86.30
2023-04-30T19:18:29.644Z,86.80
2023-04-30T19:22:11.742Z,87.20
2023-04-30T19:25:53.484Z,87.50
2023-04-30T19:29:35.426Z,87.70
2023-04-30T19:33:17.244Z,87.90
2023-04-30T19:36:58.985Z,88.20
2023-04-30T19:40:49.388Z,88.50
2023-04-30T19:44:31.321Z,89.80
2023-04-30T19:48:14.775Z,88.70
2023-04-30T19:51:56.507Z,89.00
2023-04-30T19:55:38.740Z,89.10
2023-04-30T19:59:20.614Z,89.40
2023-04-30T20:03:04.996Z,89.70
2023-04-30T20:06:48.101Z,90.00
2023-04-30T20:10:30.410Z,90.00
2023-04-30T20:14:12.151Z,90.50
2023-04-30T20:17:54.034Z,90.00
2023-04-30T20:21:35.788Z,90.20
2023-04-30T20:25:18.677Z,90.30
2023-04-30T20:29:01.063Z,90.50
2023-04-30T20:32:43.103Z,90.50
2023-04-30T20:36:24.932Z,90.70
2023-04-30T20:40:07.951Z,90.70
2023-04-30T20:43:49.760Z,90.80
2023-04-30T20:47:31.533Z,90.90
2023-04-30T20:51:15.967Z,91.00
2023-04-30T20:54:59.361Z,91.00
2023-04-30T20:58:42.925Z,91.20
2023-04-30T21:02:25.406Z,91.20
2023-04-30T21:06:07.239Z,91.30
2023-04-30T21:09:50.336Z,91.30
2023-04-30T21:13:33.059Z,91.30
2023-04-30T21:17:15.269Z,91.80
2023-04-30T21:21:06.160Z,91.20
2023-04-30T21:24:48.652Z,91.60
2023-04-30T21:28:31.590Z,91.20
2023-04-30T21:32:13.573Z,91.30
2023-04-30T21:35:58.893Z,91.30
2023-04-30T21:39:40.684Z,91.40
2023-04-30T21:43:22.409Z,91.40
2023-04-30T21:47:04.937Z,91.50
2023-04-30T21:50:47.828Z,91.50
2023-04-30T21:54:31.359Z,91.60
2023-04-30T21:58:13.888Z,91.60
2023-04-30T22:01:55.947Z,91.70
2023-04-30T22:05:40.032Z,91.70
2023-04-30T22:09:25.540Z,91.60
2023-04-30T22:13:07.457Z,91.60
2023-04-30T22:16:50.276Z,91.50
2023-04-30T22:20:32.353Z,91.60
2023-04-30T22:24:15.393Z,91.60
2023-04-30T22:27:57.605Z,91.70
2023-04-30T22:31:40.070Z,92.00
2023-04-30T22:35:23.264Z,91.60
2023-04-30T22:39:06.355Z,91.90
2023-04-30T22:42:48.536Z,92.20
2023-04-30T22:46:33.534Z,92.00
2023-04-30T22:50:15.521Z,91.60
2023-04-30T22:53:57.608Z,91.40
2023-04-30T22:57:45.691Z,91.30
2023-04-30T23:01:28.230Z,91.30
2023-04-30T23:05:10.218Z,91.10
2023-04-30T23:08:51.901Z,91.10
2023-04-30T23:12:35.063Z,91.20
2023-04-30T23:16:20.259Z,91.20
2023-04-30T23:20:01.981Z,91.40
2023-04-30T23:23:44.422Z,91.10
2023-04-30T23:27:29.554Z,91.10
2023-04-30T23:31:13.422Z,91.20
2023-04-30T23:34:55.367Z,91.00
2023-04-30T23:38:37.198Z,91.10
2023-04-30T23:42:18.923Z,91.00
2023-04-30T23:46:00.660Z,91.00
2023-04-30T23:49:44.746Z,90.90
2023-04-30T23:53:28.509Z,90.90
2023-04-30T23:57:10.583Z,90.70
